Terminal Aerodrome Forecast
Issued by NWS Binghamton, NY

Home | Current Version | Previous Version | Text Only | Print | Product List | Glossary On
Versions: 1 2 3 4 5 6 7 8 9 10 11 12 13 14 15 16 17 18 19 20 21 22 23 24
509
FTUS41 KBGM 280620 CCB
TAFBGM
TAF COR
KBGM 280620Z 2806/2906 19010KT P6SM SCT040 BKN100
      TEMPO 2806/2810 5SM -SHRA BR BKN025
     FM281000 25006KT P6SM BKN040
     FM281600 25007KT P6SM SCT050 BKN200
     FM290100 VRB04KT P6SM SCT050 BKN200=

USA.gov is the U.S. government's official web portal to all federal, state and local government web resources and services.